sensor_id;sensor_type;location;lat;lon;timestamp;P1;durP1;ratioP1;P2;durP2;ratioP2
51660;SDS011;37741;49.748;8.490;2022-09-14T00:01:14;7.70;;;5.75;;
51660;SDS011;37741;49.748;8.490;2022-09-14T00:03:42;7.88;;;5.30;;
51660;SDS011;37741;49.748;8.490;2022-09-14T00:06:13;5.70;;;4.95;;
51660;SDS011;37741;49.748;8.490;2022-09-14T00:08:39;6.18;;;5.15;;
51660;SDS011;37741;49.748;8.490;2022-09-14T00:11:06;12.57;;;5.57;;
51660;SDS011;37741;49.748;8.490;2022-09-14T00:13:35;7.15;;;5.00;;
51660;SDS011;37741;49.748;8.490;2022-09-14T00:16:03;8.60;;;5.10;;
51660;SDS011;37741;49.748;8.490;2022-09-14T00:18:30;9.02;;;5.43;;
51660;SDS011;37741;49.748;8.490;2022-09-14T00:21:04;8.18;;;5.38;;
51660;SDS011;37741;49.748;8.490;2022-09-14T00:23:33;8.13;;;4.90;;
51660;SDS011;37741;49.748;8.490;2022-09-14T00:26:03;7.68;;;5.60;;
51660;SDS011;37741;49.748;8.490;2022-09-14T00:28:30;12.77;;;5.00;;
51660;SDS011;37741;49.748;8.490;2022-09-14T00:31:02;6.68;;;4.97;;
51660;SDS011;37741;49.748;8.490;2022-09-14T00:33:28;6.28;;;5.13;;
51660;SDS011;37741;49.748;8.490;2022-09-14T00:35:53;5.35;;;4.85;;
51660;SDS011;37741;49.748;8.490;2022-09-14T00:38:19;6.53;;;5.07;;
51660;SDS011;37741;49.748;8.490;2022-09-14T00:40:45;5.65;;;4.60;;
51660;SDS011;37741;49.748;8.490;2022-09-14T00:43:21;8.00;;;4.47;;
51660;SDS011;37741;49.748;8.490;2022-09-14T00:45:46;5.40;;;4.90;;
51660;SDS011;37741;49.748;8.490;2022-09-14T00:48:12;8.23;;;5.55;;
51660;SDS011;37741;49.748;8.490;2022-09-14T00:50:37;7.32;;;5.00;;
51660;SDS011;37741;49.748;8.490;2022-09-14T00:53:03;6.90;;;4.50;;
51660;SDS011;37741;49.748;8.490;2022-09-14T00:55:29;6.93;;;4.95;;
51660;SDS011;37741;49.748;8.490;2022-09-14T00:57:57;7.13;;;4.65;;
51660;SDS011;37741;49.748;8.490;2022-09-14T01:00:24;5.45;;;4.65;;
51660;SDS011;37741;49.748;8.490;2022-09-14T01:02:50;5.20;;;4.68;;
51660;SDS011;37741;49.748;8.490;2022-09-14T01:05:16;12.60;;;5.25;;
51660;SDS011;37741;49.748;8.490;2022-09-14T01:18:58;6.53;;;5.88;;
51660;SDS011;37741;49.748;8.490;2022-09-14T01:21:30;6.32;;;5.55;;
51660;SDS011;37741;49.748;8.490;2022-09-14T01:24:14;5.90;;;5.30;;
51660;SDS011;37741;49.748;8.490;2022-09-14T01:29:47;5.13;;;4.55;;
51660;SDS011;37741;49.748;8.490;2022-09-14T01:32:24;8.90;;;5.57;;
51660;SDS011;37741;49.748;8.490;2022-09-14T01:37:56;5.45;;;4.95;;
51660;SDS011;37741;49.748;8.490;2022-09-14T01:40:27;6.82;;;5.78;;
51660;SDS011;37741;49.748;8.490;2022-09-14T01:45:56;7.43;;;5.03;;
51660;SDS011;37741;49.748;8.490;2022-09-14T01:48:30;6.60;;;4.47;;
51660;SDS011;37741;49.748;8.490;2022-09-14T01:51:02;6.63;;;5.22;;
51660;SDS011;37741;49.748;8.490;2022-09-14T02:01:32;8.23;;;5.00;;
51660;SDS011;37741;49.748;8.490;2022-09-14T02:04:03;7.68;;;5.03;;
51660;SDS011;37741;49.748;8.490;2022-09-14T02:06:33;9.65;;;4.40;;
51660;SDS011;37741;49.748;8.490;2022-09-14T02:09:04;7.03;;;5.18;;
51660;SDS011;37741;49.748;8.490;2022-09-14T02:11:35;7.50;;;5.15;;
51660;SDS011;37741;49.748;8.490;2022-09-14T02:14:02;5.97;;;4.30;;
51660;SDS011;37741;49.748;8.490;2022-09-14T02:16:28;10.68;;;4.60;;
51660;SDS011;37741;49.748;8.490;2022-09-14T02:18:54;10.13;;;4.82;;
51660;SDS011;37741;49.748;8.490;2022-09-14T02:21:24;7.28;;;5.60;;
51660;SDS011;37741;49.748;8.490;2022-09-14T02:23:51;8.50;;;5.15;;
51660;SDS011;37741;49.748;8.490;2022-09-14T02:26:18;5.68;;;4.45;;
51660;SDS011;37741;49.748;8.490;2022-09-14T02:28:45;6.43;;;5.25;;
51660;SDS011;37741;49.748;8.490;2022-09-14T02:31:15;7.00;;;4.90;;
51660;SDS011;37741;49.748;8.490;2022-09-14T02:34:12;7.90;;;6.18;;
51660;SDS011;37741;49.748;8.490;2022-09-14T02:37:18;6.25;;;5.00;;
51660;SDS011;37741;49.748;8.490;2022-09-14T02:42:37;8.68;;;5.60;;
51660;SDS011;37741;49.748;8.490;2022-09-14T02:45:17;6.88;;;5.55;;
51660;SDS011;37741;49.748;8.490;2022-09-14T02:48:18;7.70;;;5.05;;
51660;SDS011;37741;49.748;8.490;2022-09-14T02:56:46;6.47;;;5.00;;
51660;SDS011;37741;49.748;8.490;2022-09-14T02:59:12;6.55;;;5.28;;
51660;SDS011;37741;49.748;8.490;2022-09-14T03:01:38;5.43;;;4.45;;
51660;SDS011;37741;49.748;8.490;2022-09-14T03:04:03;5.85;;;4.80;;
51660;SDS011;37741;49.748;8.490;2022-09-14T03:06:29;5.40;;;4.78;;
51660;SDS011;37741;49.748;8.490;2022-09-14T03:08:55;7.05;;;5.30;;
51660;SDS011;37741;49.748;8.490;2022-09-14T03:11:20;7.78;;;4.95;;
51660;SDS011;37741;49.748;8.490;2022-09-14T03:13:46;6.40;;;4.82;;
51660;SDS011;37741;49.748;8.490;2022-09-14T03:16:14;8.75;;;4.90;;
51660;SDS011;37741;49.748;8.490;2022-09-14T03:18:41;8.07;;;5.07;;
51660;SDS011;37741;49.748;8.490;2022-09-14T03:21:11;5.70;;;4.65;;
51660;SDS011;37741;49.748;8.490;2022-09-14T03:23:40;6.93;;;4.72;;
51660;SDS011;37741;49.748;8.490;2022-09-14T03:26:11;6.40;;;5.35;;
51660;SDS011;37741;49.748;8.490;2022-09-14T03:28:38;8.07;;;5.68;;
51660;SDS011;37741;49.748;8.490;2022-09-14T03:31:05;6.82;;;4.82;;
51660;SDS011;37741;49.748;8.490;2022-09-14T03:33:32;5.53;;;4.95;;
51660;SDS011;37741;49.748;8.490;2022-09-14T03:35:58;7.10;;;5.18;;
51660;SDS011;37741;49.748;8.490;2022-09-14T03:38:24;6.10;;;5.07;;
51660;SDS011;37741;49.748;8.490;2022-09-14T03:40:54;5.75;;;4.78;;
51660;SDS011;37741;49.748;8.490;2022-09-14T03:43:22;6.93;;;5.10;;
51660;SDS011;37741;49.748;8.490;2022-09-14T03:45:47;8.00;;;5.97;;
51660;SDS011;37741;49.748;8.490;2022-09-14T03:48:13;7.70;;;4.70;;
51660;SDS011;37741;49.748;8.490;2022-09-14T03:50:40;5.63;;;5.03;;
51660;SDS011;37741;49.748;8.490;2022-09-14T03:53:06;6.05;;;5.45;;
51660;SDS011;37741;49.748;8.490;2022-09-14T03:55:32;5.72;;;4.63;;
51660;SDS011;37741;49.748;8.490;2022-09-14T03:57:58;6.13;;;4.53;;
51660;SDS011;37741;49.748;8.490;2022-09-14T04:00:23;7.50;;;5.20;;
51660;SDS011;37741;49.748;8.490;2022-09-14T04:02:49;6.35;;;5.22;;
51660;SDS011;37741;49.748;8.490;2022-09-14T04:05:15;7.07;;;5.18;;
51660;SDS011;37741;49.748;8.490;2022-09-14T04:07:41;6.15;;;4.97;;
51660;SDS011;37741;49.748;8.490;2022-09-14T04:10:06;5.90;;;4.88;;
51660;SDS011;37741;49.748;8.490;2022-09-14T04:12:33;7.88;;;5.18;;
51660;SDS011;37741;49.748;8.490;2022-09-14T04:15:00;5.50;;;5.00;;
51660;SDS011;37741;49.748;8.490;2022-09-14T04:17:26;5.55;;;4.55;;
51660;SDS011;37741;49.748;8.490;2022-09-14T04:19:52;5.53;;;4.60;;
51660;SDS011;37741;49.748;8.490;2022-09-14T04:22:18;7.40;;;5.20;;
51660;SDS011;37741;49.748;8.490;2022-09-14T04:24:44;5.10;;;4.32;;
51660;SDS011;37741;49.748;8.490;2022-09-14T04:27:09;6.72;;;4.60;;
51660;SDS011;37741;49.748;8.490;2022-09-14T04:29:35;6.15;;;4.07;;
51660;SDS011;37741;49.748;8.490;2022-09-14T04:32:01;5.90;;;4.05;;
51660;SDS011;37741;49.748;8.490;2022-09-14T04:34:27;4.97;;;4.30;;
51660;SDS011;37741;49.748;8.490;2022-09-14T04:36:52;5.18;;;4.07;;
51660;SDS011;37741;49.748;8.490;2022-09-14T04:39:18;4.85;;;3.65;;
51660;SDS011;37741;49.748;8.490;2022-09-14T04:41:44;6.30;;;4.95;;
51660;SDS011;37741;49.748;8.490;2022-09-14T04:44:10;5.75;;;4.63;;
51660;SDS011;37741;49.748;8.490;2022-09-14T04:46:36;4.88;;;3.80;;
51660;SDS011;37741;49.748;8.490;2022-09-14T04:49:04;5.63;;;3.78;;
51660;SDS011;37741;49.748;8.490;2022-09-14T04:51:31;4.97;;;4.15;;
51660;SDS011;37741;49.748;8.490;2022-09-14T04:53:58;5.10;;;3.67;;
51660;SDS011;37741;49.748;8.490;2022-09-14T04:56:25;6.07;;;4.20;;
51660;SDS011;37741;49.748;8.490;2022-09-14T04:58:56;4.15;;;3.55;;
51660;SDS011;37741;49.748;8.490;2022-09-14T05:01:24;6.05;;;4.40;;
51660;SDS011;37741;49.748;8.490;2022-09-14T05:03:52;5.88;;;4.85;;
51660;SDS011;37741;49.748;8.490;2022-09-14T05:06:19;5.63;;;3.90;;
51660;SDS011;37741;49.748;8.490;2022-09-14T05:08:52;5.47;;;3.75;;
51660;SDS011;37741;49.748;8.490;2022-09-14T05:11:20;4.78;;;4.28;;
51660;SDS011;37741;49.748;8.490;2022-09-14T05:13:47;4.00;;;3.30;;
51660;SDS011;37741;49.748;8.490;2022-09-14T05:16:14;4.82;;;3.83;;
51660;SDS011;37741;49.748;8.490;2022-09-14T05:18:43;4.13;;;3.65;;
51660;SDS011;37741;49.748;8.490;2022-09-14T05:21:10;4.20;;;3.22;;
51660;SDS011;37741;49.748;8.490;2022-09-14T05:23:37;4.28;;;3.40;;
51660;SDS011;37741;49.748;8.490;2022-09-14T05:26:04;5.10;;;3.38;;
51660;SDS011;37741;49.748;8.490;2022-09-14T05:28:30;4.65;;;3.67;;
51660;SDS011;37741;49.748;8.490;2022-09-14T05:30:57;5.07;;;3.97;;
51660;SDS011;37741;49.748;8.490;2022-09-14T05:33:23;5.63;;;3.50;;
51660;SDS011;37741;49.748;8.490;2022-09-14T05:35:50;6.30;;;3.50;;
51660;SDS011;37741;49.748;8.490;2022-09-14T05:38:16;4.55;;;3.97;;
51660;SDS011;37741;49.748;8.490;2022-09-14T05:40:42;4.88;;;3.63;;
51660;SDS011;37741;49.748;8.490;2022-09-14T05:43:07;6.35;;;3.92;;
51660;SDS011;37741;49.748;8.490;2022-09-14T05:45:34;4.25;;;3.75;;
51660;SDS011;37741;49.748;8.490;2022-09-14T05:48:00;4.28;;;2.97;;
51660;SDS011;37741;49.748;8.490;2022-09-14T05:50:28;5.00;;;4.20;;
51660;SDS011;37741;49.748;8.490;2022-09-14T05:52:55;4.38;;;3.20;;
51660;SDS011;37741;49.748;8.490;2022-09-14T05:55:23;4.95;;;3.58;;
51660;SDS011;37741;49.748;8.490;2022-09-14T05:57:49;5.55;;;3.83;;
51660;SDS011;37741;49.748;8.490;2022-09-14T06:00:15;3.90;;;3.30;;
51660;SDS011;37741;49.748;8.490;2022-09-14T06:02:48;5.30;;;3.75;;
51660;SDS011;37741;49.748;8.490;2022-09-14T06:05:15;4.65;;;3.55;;
51660;SDS011;37741;49.748;8.490;2022-09-14T06:07:41;5.65;;;3.90;;
51660;SDS011;37741;49.748;8.490;2022-09-14T06:10:07;4.05;;;3.20;;
51660;SDS011;37741;49.748;8.490;2022-09-14T06:12:33;3.72;;;3.00;;
51660;SDS011;37741;49.748;8.490;2022-09-14T06:14:59;3.95;;;3.20;;
51660;SDS011;37741;49.748;8.490;2022-09-14T06:17:24;4.25;;;3.13;;
51660;SDS011;37741;49.748;8.490;2022-09-14T06:19:50;5.15;;;3.58;;
51660;SDS011;37741;49.748;8.490;2022-09-14T06:22:16;5.07;;;3.50;;
51660;SDS011;37741;49.748;8.490;2022-09-14T06:24:41;6.18;;;3.53;;
51660;SDS011;37741;49.748;8.490;2022-09-14T06:27:07;3.72;;;2.75;;
51660;SDS011;37741;49.748;8.490;2022-09-14T06:29:33;4.43;;;3.30;;
51660;SDS011;37741;49.748;8.490;2022-09-14T06:31:59;5.78;;;3.47;;
51660;SDS011;37741;49.748;8.490;2022-09-14T06:34:25;5.38;;;3.30;;
51660;SDS011;37741;49.748;8.490;2022-09-14T06:36:51;5.50;;;2.90;;
51660;SDS011;37741;49.748;8.490;2022-09-14T06:39:16;3.83;;;3.40;;
51660;SDS011;37741;49.748;8.490;2022-09-14T06:41:42;3.72;;;3.08;;
51660;SDS011;37741;49.748;8.490;2022-09-14T06:44:08;4.38;;;2.90;;
51660;SDS011;37741;49.748;8.490;2022-09-14T06:46:34;5.88;;;3.40;;
51660;SDS011;37741;49.748;8.490;2022-09-14T06:49:09;4.57;;;3.03;;
51660;SDS011;37741;49.748;8.490;2022-09-14T06:51:38;4.72;;;3.30;;
51660;SDS011;37741;49.748;8.490;2022-09-14T06:54:05;7.68;;;3.53;;
51660;SDS011;37741;49.748;8.490;2022-09-14T06:56:33;6.30;;;3.47;;
51660;SDS011;37741;49.748;8.490;2022-09-14T06:59:00;3.92;;;2.83;;
51660;SDS011;37741;49.748;8.490;2022-09-14T07:01:26;4.78;;;3.22;;
51660;SDS011;37741;49.748;8.490;2022-09-14T07:03:52;5.53;;;3.72;;
51660;SDS011;37741;49.748;8.490;2022-09-14T07:06:19;6.93;;;3.30;;
51660;SDS011;37741;49.748;8.490;2022-09-14T07:08:50;4.57;;;3.00;;
51660;SDS011;37741;49.748;8.490;2022-09-14T07:11:17;4.75;;;3.00;;
51660;SDS011;37741;49.748;8.490;2022-09-14T07:13:45;3.78;;;2.92;;
51660;SDS011;37741;49.748;8.490;2022-09-14T07:16:11;5.25;;;3.38;;
51660;SDS011;37741;49.748;8.490;2022-09-14T07:18:37;5.05;;;3.40;;
51660;SDS011;37741;49.748;8.490;2022-09-14T07:21:04;3.60;;;2.90;;
51660;SDS011;37741;49.748;8.490;2022-09-14T07:23:33;4.05;;;3.42;;
51660;SDS011;37741;49.748;8.490;2022-09-14T07:28:31;3.97;;;3.45;;
51660;SDS011;37741;49.748;8.490;2022-09-14T07:30:57;4.28;;;3.17;;
51660;SDS011;37741;49.748;8.490;2022-09-14T07:33:23;3.78;;;2.72;;
51660;SDS011;37741;49.748;8.490;2022-09-14T07:35:49;5.03;;;3.88;;
51660;SDS011;37741;49.748;8.490;2022-09-14T07:38:18;4.72;;;2.85;;
51660;SDS011;37741;49.748;8.490;2022-09-14T07:40:44;4.22;;;3.13;;
51660;SDS011;37741;49.748;8.490;2022-09-14T07:43:10;4.93;;;3.38;;
51660;SDS011;37741;49.748;8.490;2022-09-14T07:45:36;3.97;;;3.05;;
51660;SDS011;37741;49.748;8.490;2022-09-14T07:48:02;3.83;;;3.05;;
51660;SDS011;37741;49.748;8.490;2022-09-14T07:50:29;4.50;;;2.95;;
51660;SDS011;37741;49.748;8.490;2022-09-14T07:52:55;4.85;;;3.25;;
51660;SDS011;37741;49.748;8.490;2022-09-14T07:55:21;4.47;;;2.70;;
51660;SDS011;37741;49.748;8.490;2022-09-14T07:57:47;3.67;;;2.88;;
51660;SDS011;37741;49.748;8.490;2022-09-14T08:00:13;6.88;;;3.15;;
51660;SDS011;37741;49.748;8.490;2022-09-14T08:02:39;3.85;;;2.83;;
51660;SDS011;37741;49.748;8.490;2022-09-14T08:05:05;3.55;;;2.75;;
51660;SDS011;37741;49.748;8.490;2022-09-14T08:07:31;4.65;;;3.55;;
51660;SDS011;37741;49.748;8.490;2022-09-14T08:09:57;4.80;;;3.47;;
51660;SDS011;37741;49.748;8.490;2022-09-14T08:12:22;3.75;;;3.33;;
51660;SDS011;37741;49.748;8.490;2022-09-14T08:14:48;3.72;;;2.92;;
51660;SDS011;37741;49.748;8.490;2022-09-14T08:17:16;4.82;;;3.47;;
51660;SDS011;37741;49.748;8.490;2022-09-14T08:19:41;5.25;;;2.85;;
51660;SDS011;37741;49.748;8.490;2022-09-14T08:22:07;6.53;;;3.40;;
51660;SDS011;37741;49.748;8.490;2022-09-14T08:24:33;6.78;;;3.33;;
51660;SDS011;37741;49.748;8.490;2022-09-14T08:26:58;3.53;;;2.85;;
51660;SDS011;37741;49.748;8.490;2022-09-14T08:29:24;4.55;;;2.92;;
51660;SDS011;37741;49.748;8.490;2022-09-14T08:31:50;3.90;;;3.05;;
51660;SDS011;37741;49.748;8.490;2022-09-14T08:34:16;5.07;;;3.03;;
51660;SDS011;37741;49.748;8.490;2022-09-14T08:36:42;4.22;;;3.55;;
51660;SDS011;37741;49.748;8.490;2022-09-14T08:39:09;4.18;;;3.30;;
51660;SDS011;37741;49.748;8.490;2022-09-14T08:52:33;5.55;;;3.00;;
51660;SDS011;37741;49.748;8.490;2022-09-14T08:57:50;7.47;;;3.20;;
51660;SDS011;37741;49.748;8.490;2022-09-14T09:00:35;6.95;;;3.42;;
51660;SDS011;37741;49.748;8.490;2022-09-14T09:03:26;4.22;;;3.83;;
51660;SDS011;37741;49.748;8.490;2022-09-14T09:11:55;5.32;;;3.25;;
51660;SDS011;37741;49.748;8.490;2022-09-14T09:14:25;3.83;;;3.08;;
51660;SDS011;37741;49.748;8.490;2022-09-14T09:17:00;3.85;;;3.00;;
51660;SDS011;37741;49.748;8.490;2022-09-14T09:19:31;4.38;;;3.53;;
51660;SDS011;37741;49.748;8.490;2022-09-14T09:22:02;3.92;;;3.05;;
51660;SDS011;37741;49.748;8.490;2022-09-14T09:24:33;4.20;;;3.60;;
51660;SDS011;37741;49.748;8.490;2022-09-14T09:27:08;5.05;;;3.40;;
51660;SDS011;37741;49.748;8.490;2022-09-14T09:29:38;4.22;;;3.08;;
51660;SDS011;37741;49.748;8.490;2022-09-14T09:32:10;5.18;;;3.15;;
51660;SDS011;37741;49.748;8.490;2022-09-14T09:34:40;4.35;;;3.13;;
51660;SDS011;37741;49.748;8.490;2022-09-14T09:37:09;4.88;;;3.38;;
51660;SDS011;37741;49.748;8.490;2022-09-14T09:39:41;3.75;;;3.13;;
51660;SDS011;37741;49.748;8.490;2022-09-14T09:42:17;5.57;;;3.78;;
51660;SDS011;37741;49.748;8.490;2022-09-14T09:44:56;4.53;;;3.47;;
51660;SDS011;37741;49.748;8.490;2022-09-14T09:47:44;4.60;;;3.13;;
51660;SDS011;37741;49.748;8.490;2022-09-14T09:52:37;5.97;;;3.40;;
51660;SDS011;37741;49.748;8.490;2022-09-14T09:55:21;4.03;;;3.47;;
51660;SDS011;37741;49.748;8.490;2022-09-14T09:57:51;5.50;;;3.70;;
51660;SDS011;37741;49.748;8.490;2022-09-14T10:00:25;6.00;;;4.32;;
51660;SDS011;37741;49.748;8.490;2022-09-14T10:02:53;4.10;;;3.35;;
51660;SDS011;37741;49.748;8.490;2022-09-14T10:05:24;4.15;;;3.60;;
51660;SDS011;37741;49.748;8.490;2022-09-14T10:08:04;4.25;;;3.58;;
51660;SDS011;37741;49.748;8.490;2022-09-14T10:13:03;5.60;;;3.53;;
51660;SDS011;37741;49.748;8.490;2022-09-14T10:15:30;4.13;;;3.38;;
51660;SDS011;37741;49.748;8.490;2022-09-14T10:25:44;5.25;;;4.20;;
51660;SDS011;37741;49.748;8.490;2022-09-14T10:28:25;6.47;;;4.07;;
51660;SDS011;37741;49.748;8.490;2022-09-14T10:30:55;5.85;;;4.22;;
51660;SDS011;37741;49.748;8.490;2022-09-14T10:33:28;5.45;;;4.07;;
51660;SDS011;37741;49.748;8.490;2022-09-14T10:36:14;5.55;;;4.50;;
51660;SDS011;37741;49.748;8.490;2022-09-14T10:38:51;6.13;;;4.80;;
51660;SDS011;37741;49.748;8.490;2022-09-14T10:46:32;4.68;;;3.83;;
51660;SDS011;37741;49.748;8.490;2022-09-14T10:49:26;4.97;;;4.38;;
51660;SDS011;37741;49.748;8.490;2022-09-14T10:52:01;4.35;;;3.70;;
51660;SDS011;37741;49.748;8.490;2022-09-14T10:54:49;6.50;;;4.57;;
51660;SDS011;37741;49.748;8.490;2022-09-14T10:57:49;6.78;;;4.95;;
51660;SDS011;37741;49.748;8.490;2022-09-14T11:00:24;8.20;;;7.00;;
51660;SDS011;37741;49.748;8.490;2022-09-14T11:03:03;5.47;;;4.07;;
51660;SDS011;37741;49.748;8.490;2022-09-14T11:08:47;5.40;;;3.92;;
51660;SDS011;37741;49.748;8.490;2022-09-14T11:11:38;4.55;;;3.80;;
51660;SDS011;37741;49.748;8.490;2022-09-14T11:14:20;4.70;;;3.90;;
51660;SDS011;37741;49.748;8.490;2022-09-14T11:17:03;6.32;;;3.88;;
51660;SDS011;37741;49.748;8.490;2022-09-14T11:25:36;6.50;;;5.13;;
51660;SDS011;37741;49.748;8.490;2022-09-14T11:28:17;5.88;;;3.90;;
51660;SDS011;37741;49.748;8.490;2022-09-14T11:31:00;5.55;;;4.95;;
51660;SDS011;37741;49.748;8.490;2022-09-14T11:33:32;5.00;;;3.75;;
51660;SDS011;37741;49.748;8.490;2022-09-14T11:36:28;5.07;;;3.65;;
51660;SDS011;37741;49.748;8.490;2022-09-14T11:39:04;5.00;;;3.40;;
51660;SDS011;37741;49.748;8.490;2022-09-14T11:41:46;4.95;;;3.75;;
51660;SDS011;37741;49.748;8.490;2022-09-14T11:44:18;4.93;;;3.45;;
51660;SDS011;37741;49.748;8.490;2022-09-14T11:46:55;5.38;;;3.47;;
51660;SDS011;37741;49.748;8.490;2022-09-14T11:49:29;4.30;;;3.25;;
51660;SDS011;37741;49.748;8.490;2022-09-14T11:54:45;4.47;;;3.63;;
51660;SDS011;37741;49.748;8.490;2022-09-14T11:57:16;7.75;;;5.78;;
51660;SDS011;37741;49.748;8.490;2022-09-14T11:59:48;5.72;;;4.65;;
51660;SDS011;37741;49.748;8.490;2022-09-14T12:12:39;5.93;;;4.93;;
51660;SDS011;37741;49.748;8.490;2022-09-14T12:15:14;6.30;;;4.78;;
51660;SDS011;37741;49.748;8.490;2022-09-14T12:17:47;7.10;;;5.97;;
51660;SDS011;37741;49.748;8.490;2022-09-14T12:23:04;7.70;;;5.70;;
51660;SDS011;37741;49.748;8.490;2022-09-14T12:25:37;5.93;;;4.68;;
51660;SDS011;37741;49.748;8.490;2022-09-14T12:28:24;5.90;;;4.15;;
51660;SDS011;37741;49.748;8.490;2022-09-14T12:35:58;6.75;;;5.35;;
51660;SDS011;37741;49.748;8.490;2022-09-14T12:38:41;5.05;;;4.55;;
51660;SDS011;37741;49.748;8.490;2022-09-14T12:56:52;6.97;;;6.25;;
51660;SDS011;37741;49.748;8.490;2022-09-14T12:59:33;5.82;;;4.35;;
51660;SDS011;37741;49.748;8.490;2022-09-14T13:05:04;5.88;;;5.28;;
51660;SDS011;37741;49.748;8.490;2022-09-14T13:07:41;7.03;;;5.10;;
51660;SDS011;37741;49.748;8.490;2022-09-14T13:10:07;6.93;;;5.47;;
51660;SDS011;37741;49.748;8.490;2022-09-14T13:12:43;5.38;;;4.78;;
51660;SDS011;37741;49.748;8.490;2022-09-14T13:17:57;6.93;;;5.22;;
51660;SDS011;37741;49.748;8.490;2022-09-14T13:20:23;7.80;;;6.47;;
51660;SDS011;37741;49.748;8.490;2022-09-14T13:22:49;7.07;;;5.72;;
51660;SDS011;37741;49.748;8.490;2022-09-14T13:25:25;8.13;;;4.90;;
51660;SDS011;37741;49.748;8.490;2022-09-14T13:27:59;9.20;;;5.82;;
51660;SDS011;37741;49.748;8.490;2022-09-14T13:30:27;11.65;;;6.53;;
51660;SDS011;37741;49.748;8.490;2022-09-14T13:32:57;6.68;;;5.90;;
51660;SDS011;37741;49.748;8.490;2022-09-14T13:35:28;5.60;;;4.60;;
51660;SDS011;37741;49.748;8.490;2022-09-14T13:40:48;7.25;;;6.50;;
51660;SDS011;37741;49.748;8.490;2022-09-14T13:43:16;8.43;;;5.45;;
51660;SDS011;37741;49.748;8.490;2022-09-14T13:45:46;6.60;;;5.80;;
51660;SDS011;37741;49.748;8.490;2022-09-14T13:48:14;7.82;;;6.28;;
51660;SDS011;37741;49.748;8.490;2022-09-14T13:50:42;7.97;;;5.57;;
51660;SDS011;37741;49.748;8.490;2022-09-14T14:01:41;6.90;;;5.83;;
51660;SDS011;37741;49.748;8.490;2022-09-14T14:04:22;8.45;;;5.45;;
51660;SDS011;37741;49.748;8.490;2022-09-14T14:13:09;4.97;;;4.45;;
51660;SDS011;37741;49.748;8.490;2022-09-14T14:15:35;6.70;;;5.18;;
51660;SDS011;37741;49.748;8.490;2022-09-14T14:46:35;7.28;;;4.20;;
51660;SDS011;37741;49.748;8.490;2022-09-14T14:49:01;7.85;;;4.00;;
51660;SDS011;37741;49.748;8.490;2022-09-14T14:51:27;7.22;;;4.28;;
51660;SDS011;37741;49.748;8.490;2022-09-14T14:53:52;5.85;;;3.63;;
51660;SDS011;37741;49.748;8.490;2022-09-14T14:56:20;4.13;;;3.35;;
51660;SDS011;37741;49.748;8.490;2022-09-14T14:58:47;10.32;;;4.38;;
51660;SDS011;37741;49.748;8.490;2022-09-14T15:01:12;6.00;;;3.88;;
51660;SDS011;37741;49.748;8.490;2022-09-14T15:03:38;5.03;;;3.70;;
51660;SDS011;37741;49.748;8.490;2022-09-14T15:06:14;6.22;;;3.38;;
51660;SDS011;37741;49.748;8.490;2022-09-14T15:12:35;7.78;;;3.70;;
51660;SDS011;37741;49.748;8.490;2022-09-14T15:18:34;4.85;;;2.55;;
51660;SDS011;37741;49.748;8.490;2022-09-14T15:27:55;3.78;;;2.75;;
51660;SDS011;37741;49.748;8.490;2022-09-14T15:33:42;8.85;;;2.95;;
51660;SDS011;37741;49.748;8.490;2022-09-14T15:36:08;4.13;;;2.50;;
51660;SDS011;37741;49.748;8.490;2022-09-14T15:38:34;4.47;;;2.50;;
51660;SDS011;37741;49.748;8.490;2022-09-14T15:44:09;4.30;;;2.25;;
51660;SDS011;37741;49.748;8.490;2022-09-14T15:50:01;5.97;;;2.92;;
51660;SDS011;37741;49.748;8.490;2022-09-14T15:52:29;4.20;;;2.28;;
51660;SDS011;37741;49.748;8.490;2022-09-14T15:54:55;4.68;;;2.13;;
51660;SDS011;37741;49.748;8.490;2022-09-14T15:57:20;3.10;;;2.00;;
51660;SDS011;37741;49.748;8.490;2022-09-14T15:59:46;2.67;;;1.83;;
51660;SDS011;37741;49.748;8.490;2022-09-14T16:02:12;4.20;;;2.03;;
51660;SDS011;37741;49.748;8.490;2022-09-14T16:04:38;8.35;;;1.90;;
51660;SDS011;37741;49.748;8.490;2022-09-14T16:07:05;2.95;;;1.73;;
51660;SDS011;37741;49.748;8.490;2022-09-14T16:09:34;2.72;;;1.75;;
51660;SDS011;37741;49.748;8.490;2022-09-14T16:12:00;4.70;;;2.17;;
51660;SDS011;37741;49.748;8.490;2022-09-14T16:14:26;7.03;;;1.95;;
51660;SDS011;37741;49.748;8.490;2022-09-14T16:16:51;3.58;;;1.73;;
51660;SDS011;37741;49.748;8.490;2022-09-14T16:19:17;3.70;;;2.10;;
51660;SDS011;37741;49.748;8.490;2022-09-14T16:21:43;3.72;;;1.98;;
51660;SDS011;37741;49.748;8.490;2022-09-14T16:24:13;2.88;;;1.80;;
51660;SDS011;37741;49.748;8.490;2022-09-14T16:26:41;3.97;;;1.50;;
51660;SDS011;37741;49.748;8.490;2022-09-14T16:29:09;3.05;;;1.63;;
51660;SDS011;37741;49.748;8.490;2022-09-14T16:31:38;3.45;;;1.70;;
51660;SDS011;37741;49.748;8.490;2022-09-14T16:34:08;4.65;;;1.70;;
51660;SDS011;37741;49.748;8.490;2022-09-14T16:36:39;5.40;;;2.05;;
51660;SDS011;37741;49.748;8.490;2022-09-14T16:39:06;3.30;;;1.80;;
51660;SDS011;37741;49.748;8.490;2022-09-14T16:41:34;5.18;;;1.73;;
51660;SDS011;37741;49.748;8.490;2022-09-14T16:44:02;3.10;;;1.70;;
51660;SDS011;37741;49.748;8.490;2022-09-14T16:46:29;2.83;;;1.50;;
51660;SDS011;37741;49.748;8.490;2022-09-14T16:48:56;3.58;;;1.88;;
51660;SDS011;37741;49.748;8.490;2022-09-14T16:51:26;3.40;;;2.03;;
51660;SDS011;37741;49.748;8.490;2022-09-14T16:53:52;3.17;;;1.70;;
51660;SDS011;37741;49.748;8.490;2022-09-14T16:56:22;2.80;;;1.63;;
51660;SDS011;37741;49.748;8.490;2022-09-14T16:58:54;6.10;;;2.20;;
51660;SDS011;37741;49.748;8.490;2022-09-14T17:01:25;3.97;;;1.48;;
51660;SDS011;37741;49.748;8.490;2022-09-14T17:03:53;3.30;;;1.50;;
51660;SDS011;37741;49.748;8.490;2022-09-14T17:06:21;3.03;;;1.83;;
51660;SDS011;37741;49.748;8.490;2022-09-14T17:08:51;3.17;;;1.73;;
51660;SDS011;37741;49.748;8.490;2022-09-14T17:11:18;3.05;;;1.65;;
51660;SDS011;37741;49.748;8.490;2022-09-14T17:13:44;4.50;;;1.90;;
51660;SDS011;37741;49.748;8.490;2022-09-14T17:16:14;2.58;;;1.40;;
51660;SDS011;37741;49.748;8.490;2022-09-14T17:18:43;3.47;;;1.95;;
51660;SDS011;37741;49.748;8.490;2022-09-14T17:21:13;2.42;;;1.50;;
51660;SDS011;37741;49.748;8.490;2022-09-14T17:23:41;3.53;;;1.70;;
51660;SDS011;37741;49.748;8.490;2022-09-14T17:26:07;5.18;;;1.73;;
51660;SDS011;37741;49.748;8.490;2022-09-14T17:28:35;4.60;;;1.70;;
51660;SDS011;37741;49.748;8.490;2022-09-14T17:31:02;4.00;;;1.42;;
51660;SDS011;37741;49.748;8.490;2022-09-14T17:33:30;2.30;;;1.42;;
51660;SDS011;37741;49.748;8.490;2022-09-14T17:35:58;2.92;;;1.60;;
51660;SDS011;37741;49.748;8.490;2022-09-14T17:38:26;3.42;;;1.52;;
51660;SDS011;37741;49.748;8.490;2022-09-14T17:41:14;3.03;;;1.33;;
51660;SDS011;37741;49.748;8.490;2022-09-14T17:43:48;3.58;;;1.70;;
51660;SDS011;37741;49.748;8.490;2022-09-14T17:46:15;3.50;;;1.60;;
51660;SDS011;37741;49.748;8.490;2022-09-14T17:48:41;4.50;;;1.88;;
51660;SDS011;37741;49.748;8.490;2022-09-14T17:51:09;4.38;;;1.30;;
51660;SDS011;37741;49.748;8.490;2022-09-14T17:53:42;2.83;;;1.42;;
51660;SDS011;37741;49.748;8.490;2022-09-14T17:56:09;4.97;;;1.52;;
51660;SDS011;37741;49.748;8.490;2022-09-14T17:58:37;4.28;;;1.60;;
51660;SDS011;37741;49.748;8.490;2022-09-14T18:01:07;3.55;;;1.58;;
51660;SDS011;37741;49.748;8.490;2022-09-14T18:03:38;2.38;;;1.35;;
51660;SDS011;37741;49.748;8.490;2022-09-14T18:06:05;3.50;;;1.77;;
51660;SDS011;37741;49.748;8.490;2022-09-14T18:08:33;2.42;;;1.40;;
51660;SDS011;37741;49.748;8.490;2022-09-14T18:11:05;2.80;;;1.58;;
51660;SDS011;37741;49.748;8.490;2022-09-14T18:13:33;6.43;;;1.90;;
51660;SDS011;37741;49.748;8.490;2022-09-14T18:15:58;2.55;;;1.40;;
51660;SDS011;37741;49.748;8.490;2022-09-14T18:18:31;3.42;;;1.55;;
51660;SDS011;37741;49.748;8.490;2022-09-14T18:20:57;2.00;;;1.10;;